| time (UTC) | temp F | wind direction | speed MPH | gust MPH | rain 1hr in | rain 24hr in | rain mn in | humidity % | barometer mb |
| 20260507202841 | 63 | 289 | 6.0 | 12.0 | 0.00 | 0.18 | 0.01 | 35 | 1005.7 |
| 20260507202400 | 64 | 290 | 4.0 | 14.0 | 0.00 | 0.18 | 0.01 | 34 | 1005.7 |
| 20260507201835 | 63 | 330 | 5.0 | 14.0 | 0.00 | 0.18 | 0.01 | 33 | 1005.8 |
| 20260507201353 | 63 | 281 | 4.0 | 11.0 | 0.00 | 0.18 | 0.01 | 36 | 1005.8 |
| 20260507200831 | 63 | 276 | 7.0 | 10.0 | 0.00 | 0.18 | 0.01 | 35 | 1005.9 |
| 20260507200410 | 63 | 312 | 4.0 | 11.0 | 0.00 | 0.18 | 0.01 | 36 | 1005.8 |
| 20260507195823 | 63 | 284 | 6.0 | 11.0 | 0.00 | 0.18 | 0.01 | 34 | 1005.8 |
| 20260507195340 | 64 | 289 | 5.0 | 11.0 | 0.00 | 0.22 | 0.01 | 35 | 1005.9 |
| 20260507194816 | 63 | 283 | 4.0 | 13.0 | 0.00 | 0.22 | 0.01 | 34 | 1005.9 |
| 20260507194334 | 62 | 296 | 5.0 | 13.0 | 0.00 | 0.22 | 0.01 | 33 | 1005.9 |
| 20260507193852 | 63 | 286 | 6.0 | 12.0 | 0.00 | 0.22 | 0.01 | 36 | 1005.9 |
| 20260507193348 | 64 | 287 | 3.0 | 10.0 | 0.00 | 0.22 | 0.01 | 35 | 1006.0 |
| 20260507192822 | 65 | 322 | 2.0 | 14.0 | 0.00 | 0.22 | 0.01 | 36 | 1006.1 |
| 20260507192321 | 64 | 300 | 4.0 | 14.0 | 0.00 | 0.22 | 0.01 | 36 | 1006.2 |
| 20260507191841 | 64 | 280 | 5.0 | 14.0 | 0.00 | 0.22 | 0.01 | 35 | 1006.2 |
| 20260507191338 | 65 | 264 | 5.0 | 9.0 | 0.00 | 0.22 | 0.01 | 36 | 1006.1 |
| 20260507190835 | 64 | 329 | 1.0 | 10.0 | 0.00 | 0.22 | 0.01 | 37 | 1006.2 |
| 20260507190330 | 64 | 338 | 3.0 | 15.0 | 0.00 | 0.22 | 0.01 | 36 | 1006.3 |
| 20260507185828 | 64 | 319 | 7.0 | 16.0 | 0.00 | 0.22 | 0.01 | 37 | 1006.3 |
| 20260507185413 | 63 | 319 | 7.0 | 16.0 | 0.00 | 0.22 | 0.01 | 36 | 1006.4 |
| 20260507184828 | 63 | 290 | 5.0 | 14.0 | 0.00 | 0.22 | 0.01 | 36 | 1006.4 |
| 20260507184410 | 63 | 234 | 8.0 | 14.0 | 0.00 | 0.22 | 0.01 | 35 | 1006.4 |
| 20260507183842 | 63 | 274 | 7.0 | 17.0 | 0.00 | 0.22 | 0.01 | 35 | 1006.4 |
| 20260507183319 | 63 | 278 | 9.0 | 17.0 | 0.00 | 0.22 | 0.01 | 34 | 1006.5 |
| 20260507182817 | 63 | 294 | 10.0 | 17.0 | 0.00 | 0.22 | 0.01 | 35 | 1006.4 |
| 20260507182334 | 63 | 310 | 8.0 | 15.0 | 0.00 | 0.22 | 0.01 | 35 | 1006.4 |
| 20260507181830 | 64 | 263 | 6.0 | 15.0 | 0.00 | 0.22 | 0.01 | 36 | 1006.4 |
| 20260507181327 | 63 | 298 | 3.0 | 14.0 | 0.00 | 0.22 | 0.01 | 37 | 1006.4 |
| 20260507180912 | 63 | 309 | 8.0 | 14.0 | 0.00 | 0.22 | 0.01 | 34 | 1006.6 |
| 20260507180323 | 63 | 278 | 7.0 | 17.0 | 0.00 | 0.22 | 0.01 | 35 | 1006.5 |
| 20260507175840 | 63 | 324 | 8.0 | 17.0 | 0.00 | 0.22 | 0.01 | 35 | 1006.5 |
| 20260507175405 | 63 | 260 | 10.0 | 16.0 | 0.00 | 0.22 | 0.01 | 35 | 1006.4 |
| 20260507174820 | 64 | 319 | 5.0 | 13.0 | 0.00 | 0.22 | 0.01 | 38 | 1006.2 |
| 20260507174335 | 63 | 287 | 7.0 | 14.0 | 0.00 | 0.22 | 0.01 | 37 | 1006.4 |
| 20260507173852 | 63 | 271 | 6.0 | 14.0 | 0.00 | 0.22 | 0.01 | 37 | 1006.3 |
| 20260507173417 | 63 | 319 | 3.0 | 12.0 | 0.00 | 0.22 | 0.01 | 41 | 1006.2 |
| 20260507172918 | 62 | 294 | 5.0 | 20.0 | 0.00 | 0.22 | 0.01 | 38 | 1006.5 |
| 20260507172350 | 63 | 309 | 11.0 | 20.0 | 0.00 | 0.22 | 0.01 | 34 | 1006.6 |
| 20260507171846 | 63 | 337 | 3.0 | 13.0 | 0.00 | 0.22 | 0.01 | 40 | 1006.4 |
| 20260507171322 | 62 | 316 | 6.0 | 12.0 | 0.00 | 0.22 | 0.01 | 38 | 1006.6 |
| 20260507170820 | 62 | 300 | 5.0 | 18.0 | 0.00 | 0.22 | 0.01 | 38 | 1006.8 |
| 20260507170423 | 62 | 283 | 8.0 | 18.0 | 0.00 | 0.22 | 0.01 | 35 | 1006.8 |
| 20260507165858 | 63 | 306 | 8.0 | 14.0 | 0.00 | 0.22 | 0.01 | 39 | 1006.8 |
| 20260507165332 | 62 | 315 | 5.0 | 11.0 | 0.00 | 0.22 | 0.01 | 43 | 1006.7 |
| 20260507164849 | 62 | 281 | 4.0 | 14.0 | 0.00 | 0.22 | 0.01 | 44 | 1006.9 |
| 20260507164326 | 61 | 294 | 6.0 | 13.0 | 0.00 | 0.22 | 0.01 | 50 | 1006.8 |
| 20260507163823 | 62 | 261 | 5.0 | 11.0 | 0.00 | 0.22 | 0.01 | 49 | 1006.9 |
| 20260507163408 | 61 | 267 | 6.0 | 10.0 | 0.00 | 0.22 | 0.01 | 50 | 1006.9 |
| 20260507162821 | 60 | 275 | 4.0 | 13.0 | 0.00 | 0.22 | 0.01 | 54 | 1007.0 |
| 20260507162339 | 60 | 238 | 7.0 | 13.0 | 0.00 | 0.22 | 0.01 | 54 | 1007.1 |
| 20260507161856 | 61 | 347 | 3.0 | 11.0 | 0.00 | 0.22 | 0.01 | 54 | 1007.0 |
| 20260507161354 | 61 | 270 | 4.0 | 13.0 | 0.00 | 0.22 | 0.01 | 55 | 1007.1 |
| 20260507160847 | 61 | 294 | 6.0 | 11.0 | 0.00 | 0.22 | 0.01 | 57 | 1007.1 |
| 20260507160321 | 60 | 327 | 3.0 | 11.0 | 0.00 | 0.22 | 0.01 | 56 | 1007.1 |
| 20260507155838 | 60 | 290 | 5.0 | 9.0 | 0.00 | 0.22 | 0.01 | 54 | 1007.2 |
| 20260507155335 | 60 | 289 | 3.0 | 8.0 | 0.00 | 0.22 | 0.01 | 59 | 1007.2 |
| 20260507154855 | 59 | 269 | 4.0 | 10.0 | 0.00 | 0.22 | 0.01 | 56 | 1007.4 |
| 20260507154326 | 60 | 290 | 5.0 | 12.0 | 0.00 | 0.22 | 0.01 | 54 | 1007.4 |
| 20260507153910 | 60 | 309 | 7.0 | 12.0 | 0.00 | 0.22 | 0.01 | 54 | 1007.5 |
| 20260507153345 | 59 | 314 | 4.0 | 12.0 | 0.00 | 0.22 | 0.01 | 57 | 1007.5 |
| 20260507152822 | 59 | 305 | 4.0 | 12.0 | 0.00 | 0.22 | 0.01 | 58 | 1007.7 |
| 20260507152407 | 59 | 290 | 7.0 | 12.0 | 0.00 | 0.22 | 0.01 | 55 | 1007.7 |
| 20260507151841 | 59 | 310 | 6.0 | 10.0 | 0.00 | 0.22 | 0.01 | 53 | 1007.7 |
| 20260507151358 | 59 | 319 | 6.0 | 10.0 | 0.00 | 0.22 | 0.01 | 55 | 1007.8 |
| 20260507150853 | 59 | 301 | 4.0 | 12.0 | 0.01 | 0.22 | 0.01 | 55 | 1007.7 |
| 20260507150325 | 58 | 315 | 4.0 | 12.0 | 0.01 | 0.22 | 0.01 | 57 | 1007.9 |
| 20260507145906 | 58 | 311 | 7.0 | 11.0 | 0.01 | 0.22 | 0.01 | 55 | 1008.0 |
| 20260507145321 | 58 | 215 | 2.0 | 14.0 | 0.01 | 0.22 | 0.01 | 57 | 1007.9 |
| 20260507144839 | 58 | 284 | 7.0 | 14.0 | 0.01 | 0.22 | 0.01 | 55 | 1008.1 |
| 20260507144355 | 59 | 329 | 4.0 | 15.0 | 0.01 | 0.22 | 0.01 | 56 | 1007.9 |
| 20260507143828 | 59 | 321 | 7.0 | 12.0 | 0.01 | 0.22 | 0.01 | 55 | 1008.0 |
| 20260507143410 | 59 | 309 | 7.0 | 10.0 | 0.01 | 0.22 | 0.01 | 54 | 1008.0 |
| 20260507142825 | 59 | 257 | 5.0 | 10.0 | 0.01 | 0.22 | 0.01 | 56 | 1008.0 |
| 20260507142323 | 59 | 305 | 5.0 | 10.0 | 0.01 | 0.22 | 0.01 | 56 | 1007.9 |
| 20260507141821 | 58 | 325 | 5.0 | 10.0 | 0.01 | 0.22 | 0.01 | 58 | 1007.8 |
| 20260507141338 | 59 | 302 | 4.0 | 10.0 | 0.00 | 0.21 | 0.00 | 59 | 1007.7 |
| 20260507140900 | 58 | 309 | 5.0 | 10.0 | 0.00 | 0.21 | 0.00 | 59 | 1007.8 |
| 20260507140353 | 58 | 303 | 2.0 | 10.0 | 0.00 | 0.21 | 0.00 | 59 | 1007.6 |
| 20260507135917 | 58 | 317 | 5.0 | 9.0 | 0.00 | 0.21 | 0.00 | 58 | 1007.8 |
| 20260507135351 | 58 | 288 | 3.0 | 8.0 | 0.00 | 0.21 | 0.00 | 59 | 1007.8 |
| 20260507134827 | 57 | 302 | 4.0 | 8.0 | 0.00 | 0.21 | 0.00 | 60 | 1007.8 |
| 20260507134340 | 57 | 309 | 2.0 | 5.0 | 0.00 | 0.21 | 0.00 | 61 | 1007.9 |
| 20260507133924 | 57 | 347 | 2.0 | 8.0 | 0.00 | 0.21 | 0.00 | 58 | 1008.0 |
| 20260507133358 | 57 | 318 | 3.0 | 6.0 | 0.00 | 0.21 | 0.00 | 60 | 1008.1 |
| 20260507132833 | 56 | 311 | 4.0 | 6.0 | 0.00 | 0.21 | 0.00 | 60 | 1008.3 |
| 20260507132351 | 56 | 329 | 2.0 | 5.0 | 0.00 | 0.21 | 0.00 | 63 | 1008.3 |
| 20260507131914 | 56 | 323 | 2.0 | 7.0 | 0.00 | 0.21 | 0.00 | 63 | 1008.4 |
| 20260507131348 | 55 | 291 | 3.0 | 8.0 | 0.00 | 0.21 | 0.00 | 63 | 1008.4 |
| 20260507130845 | 55 | 298 | 2.0 | 4.0 | 0.00 | 0.21 | 0.00 | 64 | 1008.4 |
| 20260507130338 | 54 | 294 | 1.0 | 4.0 | 0.00 | 0.21 | 0.00 | 65 | 1008.5 |
| 20260507125835 | 54 | 260 | 1.0 | 5.0 | 0.00 | 0.21 | 0.00 | 66 | 1008.6 |
| 20260507125333 | 54 | 276 | 2.0 | 8.0 | 0.00 | 0.21 | 0.00 | 66 | 1008.5 |
| 20260507124914 | 54 | 310 | 2.0 | 7.0 | 0.00 | 0.21 | 0.00 | 66 | 1008.6 |
| 20260507124350 | 53 | 309 | 2.0 | 10.0 | 0.00 | 0.21 | 0.00 | 66 | 1008.6 |
| 20260507123913 | 53 | 282 | 2.0 | 5.0 | 0.00 | 0.21 | 0.00 | 68 | 1008.6 |
| 20260507123327 | 52 | 296 | 2.0 | 5.0 | 0.00 | 0.21 | 0.00 | 69 | 1008.6 |
| 20260507122825 | 52 | 303 | 3.0 | 7.0 | 0.00 | 0.21 | 0.00 | 71 | 1008.6 |
| 20260507122410 | 52 | 299 | 4.0 | 7.0 | 0.00 | 0.21 | 0.00 | 71 | 1008.8 |
| 20260507121824 | 52 | 269 | 2.0 | 5.0 | 0.00 | 0.21 | 0.00 | 72 | 1008.8 |
| 20260507121321 | 51 | 294 | 1.0 | 6.0 | 0.00 | 0.21 | 0.00 | 74 | 1008.7 |
| 20260507120818 | 51 | 309 | 2.0 | 5.0 | 0.00 | 0.21 | 0.00 | 75 | 1008.7 |
| 20260507120352 | 50 | 266 | 2.0 | 5.0 | 0.00 | 0.21 | 0.00 | 76 | 1008.7 |
| 20260507115848 | 50 | 308 | 3.0 | 7.0 | 0.00 | 0.21 | 0.00 | 76 | 1008.6 |
| 20260507115411 | 50 | 234 | 3.0 | 5.0 | 0.00 | 0.21 | 0.00 | 78 | 1008.8 |
| 20260507114846 | 50 | 313 | 0.0 | 1.0 | 0.00 | 0.21 | 0.00 | 80 | 1008.7 |
| 20260507114322 | 49 | 311 | 0.0 | 1.0 | 0.00 | 0.21 | 0.00 | 80 | 1008.7 |
| 20260507113820 | 49 | 309 | 0.0 | 0.0 | 0.00 | 0.21 | 0.00 | 80 | 1008.4 |
| 20260507113333 | 49 | 310 | 0.0 | 0.0 | 0.00 | 0.21 | 0.00 | 80 | 1008.5 |
| 20260507112851 | 49 | 310 | 0.0 | 2.0 | 0.00 | 0.21 | 0.00 | 80 | 1008.4 |
| 20260507112327 | 49 | 309 | 0.0 | 2.0 | 0.00 | 0.21 | 0.00 | 80 | 1008.5 |
| 20260507111844 | 49 | 309 | 0.0 | 3.0 | 0.00 | 0.21 | 0.00 | 80 | 1008.6 |
| 20260507111320 | 49 | 310 | 1.0 | 3.0 | 0.00 | 0.21 | 0.00 | 81 | 1008.7 |
| 20260507110839 | 48 | 311 | 1.0 | 3.0 | 0.00 | 0.21 | 0.00 | 81 | 1008.7 |
| 20260507110353 | 48 | 311 | 0.0 | 1.0 | 0.00 | 0.21 | 0.00 | 82 | 1008.4 |
| 20260507105918 | 48 | 311 | 0.0 | 3.0 | 0.00 | 0.21 | 0.00 | 83 | 1008.5 |
| 20260507105353 | 48 | 311 | 0.0 | 3.0 | 0.00 | 0.21 | 0.00 | 83 | 1008.1 |
| 20260507104918 | 48 | 308 | 0.0 | 8.0 | 0.00 | 0.21 | 0.00 | 83 | 1008.3 |
| 20260507104334 | 48 | 308 | 1.0 | 8.0 | 0.00 | 0.21 | 0.00 | 84 | 1008.1 |
| 20260507103851 | 48 | 12 | 0.0 | 3.0 | 0.00 | 0.21 | 0.00 | 84 | 1008.2 |
| 20260507103410 | 48 | 12 | 1.0 | 3.0 | 0.00 | 0.21 | 0.00 | 84 | 1008.0 |
| 20260507102846 | 48 | 330 | 1.0 | 3.0 | 0.00 | 0.21 | 0.00 | 84 | 1007.9 |
| 20260507102321 | 48 | 332 | 0.0 | 0.0 | 0.00 | 0.21 | 0.00 | 84 | 1008.2 |
| 20260507101818 | 48 | 332 | 0.0 | 0.0 | 0.00 | 0.21 | 0.00 | 84 | 1008.0 |
| 20260507101316 | 48 | 332 | 0.0 | 1.0 | 0.00 | 0.21 | 0.00 | 84 | 1008.2 |
| 20260507100834 | 48 | 332 | 0.0 | 2.0 | 0.00 | 0.21 | 0.00 | 84 | 1008.2 |
| 20260507100329 | 48 | 332 | 0.0 | 4.0 | 0.00 | 0.21 | 0.00 | 84 | 1008.1 |
| 20260507095848 | 48 | 327 | 1.0 | 4.0 | 0.00 | 0.21 | 0.00 | 84 | 1008.5 |
| 20260507095324 | 48 | 298 | 1.0 | 5.0 | 0.00 | 0.21 | 0.00 | 84 | 1007.9 |
| 20260507094821 | 48 | 298 | 1.0 | 5.0 | 0.00 | 0.21 | 0.00 | 84 | 1008.1 |
| 20260507094319 | 48 | 313 | 1.0 | 3.0 | 0.00 | 0.21 | 0.00 | 85 | 1008.3 |
| 20260507093902 | 48 | 313 | 1.0 | 5.0 | 0.00 | 0.21 | 0.00 | 85 | 1008.2 |
| 20260507093359 | 48 | 313 | 2.0 | 5.0 | 0.00 | 0.21 | 0.00 | 85 | 1007.9 |
| 20260507092816 | 48 | 325 | 2.0 | 4.0 | 0.00 | 0.21 | 0.00 | 85 | 1008.0 |
| 20260507092333 | 48 | 303 | 1.0 | 6.0 | 0.00 | 0.21 | 0.00 | 85 | 1008.0 |
| 20260507091828 | 49 | 326 | 2.0 | 8.0 | 0.00 | 0.21 | 0.00 | 85 | 1008.0 |
| 20260507091346 | 49 | 330 | 3.0 | 5.0 | 0.00 | 0.21 | 0.00 | 85 | 1008.1 |
| 20260507090822 | 49 | 287 | 2.0 | 6.0 | 0.00 | 0.21 | 0.00 | 85 | 1007.6 |
| 20260507090337 | 49 | 307 | 4.0 | 7.0 | 0.00 | 0.21 | 0.00 | 85 | 1007.8 |
| 20260507085855 | 49 | 289 | 2.0 | 7.0 | 0.00 | 0.21 | 0.00 | 85 | 1007.6 |
| 20260507085350 | 49 | 321 | 3.0 | 7.0 | 0.00 | 0.21 | 0.00 | 84 | 1007.8 |
| 20260507084847 | 49 | 295 | 2.0 | 4.0 | 0.00 | 0.21 | 0.00 | 84 | 1007.9 |
| 20260507084323 | 49 | 299 | 2.0 | 4.0 | 0.00 | 0.21 | 0.00 | 84 | 1007.3 |
| 20260507083820 | 49 | 298 | 2.0 | 5.0 | 0.00 | 0.21 | 0.00 | 84 | 1007.3 |
| 20260507083316 | 50 | 330 | 1.0 | 5.0 | 0.00 | 0.21 | 0.00 | 83 | 1007.3 |
| 20260507082917 | 50 | 298 | 3.0 | 8.0 | 0.00 | 0.21 | 0.00 | 83 | 1007.6 |
| 20260507082353 | 50 | 336 | 3.0 | 10.0 | 0.00 | 0.21 | 0.00 | 82 | 1007.6 |
| 20260507081849 | 50 | 308 | 6.0 | 10.0 | 0.00 | 0.21 | 0.00 | 82 | 1007.3 |
| 20260507081325 | 50 | 290 | 4.0 | 8.0 | 0.00 | 0.21 | 0.00 | 82 | 1007.1 |
| 20260507080821 | 50 | 288 | 2.0 | 9.0 | 0.00 | 0.21 | 0.00 | 81 | 1007.3 |
| 20260507080358 | 51 | 321 | 4.0 | 10.0 | 0.00 | 0.21 | 0.00 | 81 | 1007.6 |
| 20260507075835 | 51 | 296 | 2.0 | 9.0 | 0.00 | 0.21 | 0.00 | 81 | 1007.6 |
| 20260507075333 | 51 | 327 | 4.0 | 9.0 | 0.00 | 0.21 | 0.00 | 81 | 1007.7 |
| 20260507074831 | 51 | 281 | 4.0 | 10.0 | 0.00 | 0.21 | 0.00 | 82 | 1007.6 |
| 20260507074348 | 51 | 307 | 6.0 | 10.0 | 0.00 | 0.21 | 0.00 | 81 | 1007.3 |
| 20260507073845 | 51 | 309 | 2.0 | 9.0 | 0.00 | 0.21 | 0.00 | 82 | 1007.3 |
| 20260507073320 | 51 | 320 | 3.0 | 12.0 | 0.00 | 0.21 | 0.00 | 82 | 1007.3 |
| 20260507072905 | 51 | 304 | 7.0 | 12.0 | 0.00 | 0.21 | 0.00 | 82 | 1007.2 |
| 20260507072322 | 51 | 281 | 4.0 | 10.0 | 0.00 | 0.21 | 0.00 | 82 | 1007.1 |
| 20260507071817 | 51 | 297 | 4.0 | 11.0 | 0.00 | 0.21 | 0.00 | 82 | 1007.2 |
| 20260507071358 | 51 | 327 | 4.0 | 11.0 | 0.00 | 0.21 | 0.00 | 82 | 1007.2 |
| 20260507070835 | 51 | 294 | 4.0 | 11.0 | 0.00 | 0.21 | 0.00 | 83 | 1007.3 |
| 20260507070328 | 51 | 292 | 6.0 | 11.0 | 0.00 | 0.21 | 0.00 | 83 | 1007.3 |
| 20260507065911 | 52 | 280 | 4.0 | 7.0 | 0.00 | 0.21 | 0.00 | 83 | 1007.0 |
| 20260507065413 | 52 | 304 | 2.0 | 5.0 | 0.00 | 0.21 | 0.00 | 84 | 1006.8 |
| 20260507064827 | 52 | 339 | 3.0 | 7.0 | 0.00 | 0.21 | 0.00 | 84 | 1007.2 |
| 20260507064325 | 52 | 272 | 4.0 | 7.0 | 0.00 | 0.21 | 0.00 | 84 | 1007.0 |
| 20260507063842 | 52 | 275 | 3.0 | 7.0 | 0.00 | 0.21 | 0.00 | 83 | 1006.7 |
| 20260507063319 | 52 | 312 | 3.0 | 9.0 | 0.00 | 0.21 | 0.00 | 83 | 1006.7 |
| 20260507062901 | 52 | 296 | 3.0 | 8.0 | 0.00 | 0.21 | 0.00 | 83 | 1006.7 |
| 20260507062403 | 53 | 310 | 2.0 | 5.0 | 0.00 | 0.21 | 0.00 | 83 | 1006.7 |
| 20260507061901 | 53 | 316 | 2.0 | 9.0 | 0.00 | 0.21 | 0.00 | 82 | 1006.7 |
| 20260507061358 | 53 | 305 | 4.0 | 9.0 | 0.00 | 0.21 | 0.00 | 82 | 1006.6 |
| 20260507060851 | 53 | 300 | 3.0 | 9.0 | 0.00 | 0.21 | 0.00 | 82 | 1006.8 |
| 20260507060323 | 53 | 301 | 5.0 | 9.0 | 0.00 | 0.21 | 0.00 | 82 | 1006.8 |
| 20260507055816 | 53 | 306 | 2.0 | 9.0 | 0.00 | 0.21 | 0.00 | 82 | 1006.8 |
| 20260507055333 | 53 | 296 | 3.0 | 9.0 | 0.00 | 0.21 | 0.00 | 82 | 1007.1 |
| 20260507054852 | 53 | 288 | 4.0 | 12.0 | 0.00 | 0.21 | 0.00 | 82 | 1007.2 |
| 20260507054414 | 53 | 313 | 4.0 | 10.0 | 0.00 | 0.21 | 0.00 | 82 | 1007.3 |
| 20260507053849 | 53 | 311 | 3.0 | 10.0 | 0.00 | 0.21 | 0.00 | 81 | 1007.2 |
| 20260507053323 | 53 | 296 | 5.0 | 10.0 | 0.00 | 0.21 | 0.00 | 82 | 1007.0 |
| 20260507052820 | 53 | 295 | 6.0 | 10.0 | 0.00 | 0.21 | 0.00 | 82 | 1007.2 |
| 20260507052318 | 53 | 261 | 3.0 | 9.0 | 0.00 | 0.21 | 0.00 | 82 | 1007.4 |
| 20260507051834 | 53 | 275 | 5.0 | 9.0 | 0.00 | 0.21 | 0.00 | 82 | 1007.3 |
| 20260507051352 | 53 | 336 | 3.0 | 10.0 | 0.00 | 0.21 | 0.00 | 82 | 1007.1 |
| 20260507050828 | 53 | 321 | 2.0 | 10.0 | 0.00 | 0.21 | 0.00 | 82 | 1006.9 |
| 20260507050325 | 53 | 313 | 4.0 | 8.0 | 0.00 | 0.21 | 0.00 | 83 | 1006.8 |
| 20260507045820 | 53 | 320 | 4.0 | 12.0 | 0.00 | 0.21 | 0.00 | 83 | 1007.1 |
| 20260507045338 | 54 | 310 | 4.0 | 12.0 | 0.00 | 0.21 | 0.00 | 83 | 1006.9 |
| 20260507044834 | 54 | 303 | 5.0 | 9.0 | 0.00 | 0.21 | 0.00 | 83 | 1006.9 |
| 20260507044417 | 54 | 282 | 4.0 | 11.0 | 0.00 | 0.21 | 0.00 | 84 | 1006.8 |
| 20260507043851 | 54 | 301 | 6.0 | 13.0 | 0.00 | 0.21 | 0.00 | 84 | 1006.8 |
| 20260507043345 | 54 | 312 | 5.0 | 13.0 | 0.00 | 0.21 | 0.00 | 85 | 1007.0 |
| 20260507042841 | 54 | 286 | 6.0 | 12.0 | 0.00 | 0.21 | 0.00 | 85 | 1007.0 |
| 20260507042318 | 55 | 267 | 5.0 | 11.0 | 0.00 | 0.21 | 0.00 | 86 | 1007.3 |
| 20260507041901 | 55 | 315 | 6.0 | 11.0 | 0.00 | 0.21 | 0.00 | 86 | 1007.2 |
| 20260507041358 | 55 | 290 | 5.0 | 9.0 | 0.00 | 0.21 | 0.00 | 87 | 1007.1 |
| 20260507040901 | 55 | 307 | 4.0 | 8.0 | 0.00 | 0.21 | 0.00 | 87 | 1006.8 |
| 20260507040422 | 55 | 325 | 3.0 | 12.0 | 0.00 | 0.21 | 0.00 | 87 | 1006.7 |
| 20260507035917 | 56 | 294 | 4.0 | 12.0 | 0.00 | 0.21 | 0.00 | 88 | 1006.6 |
| 20260507035333 | 56 | 293 | 4.0 | 11.0 | 0.00 | 0.21 | 0.21 | 88 | 1006.6 |
| 20260507034911 | 57 | 309 | 6.0 | 11.0 | 0.00 | 0.21 | 0.21 | 88 | 1006.5 |
| 20260507034414 | 57 | 270 | 4.0 | 11.0 | 0.00 | 0.21 | 0.21 | 89 | 1006.3 |
| 20260507033828 | 58 | 301 | 4.0 | 10.0 | 0.00 | 0.21 | 0.21 | 89 | 1006.3 |
| 20260507033413 | 58 | 318 | 3.0 | 8.0 | 0.00 | 0.21 | 0.21 | 89 | 1006.2 |
| 20260507032829 | 58 | 300 | 3.0 | 13.0 | 0.00 | 0.21 | 0.21 | 89 | 1006.1 |
| 20260507032327 | 58 | 302 | 7.0 | 20.0 | 0.00 | 0.21 | 0.21 | 89 | 1006.2 |
| 20260507031909 | 58 | 305 | 8.0 | 20.0 | 0.00 | 0.21 | 0.21 | 89 | 1006.1 |
| 20260507031324 | 59 | 319 | 9.0 | 14.0 | 0.00 | 0.21 | 0.21 | 89 | 1006.2 |
| 20260507030841 | 60 | 325 | 4.0 | 9.0 | 0.00 | 0.21 | 0.21 | 90 | 1005.9 |
| 20260507030338 | 60 | 253 | 2.0 | 9.0 | 0.00 | 0.21 | 0.21 | 90 | 1005.7 |
| 20260507025832 | 60 | 226 | 3.0 | 8.0 | 0.00 | 0.21 | 0.21 | 90 | 1005.7 |
| 20260507025329 | 60 | 195 | 3.0 | 8.0 | 0.00 | 0.21 | 0.21 | 90 | 1005.7 |
| 20260507024828 | 60 | 185 | 2.0 | 7.0 | 0.00 | 0.21 | 0.21 | 90 | 1005.7 |
| 20260507024345 | 60 | 262 | 2.0 | 8.0 | 0.00 | 0.21 | 0.21 | 90 | 1005.7 |
| 20260507023821 | 60 | 174 | 3.0 | 8.0 | 0.00 | 0.21 | 0.21 | 90 | 1005.7 |
| 20260507023405 | 60 | 211 | 3.0 | 9.0 | 0.00 | 0.21 | 0.21 | 90 | 1005.6 |
| 20260507022822 | 60 | 186 | 5.0 | 9.0 | 0.00 | 0.21 | 0.21 | 90 | 1005.5 |
| 20260507022335 | 60 | 173 | 3.0 | 8.0 | 0.00 | 0.21 | 0.21 | 90 | 1005.5 |
| 20260507021853 | 60 | 188 | 3.0 | 9.0 | 0.00 | 0.21 | 0.21 | 90 | 1005.7 |
| 20260507021330 | 60 | 195 | 5.0 | 9.0 | 0.00 | 0.21 | 0.21 | 90 | 1005.5 |
| 20260507020847 | 60 | 217 | 6.0 | 9.0 | 0.00 | 0.21 | 0.21 | 90 | 1005.7 |
| 20260507020341 | 60 | 170 | 3.0 | 8.0 | 0.00 | 0.21 | 0.21 | 90 | 1005.7 |
| 20260507015817 | 60 | 192 | 5.0 | 10.0 | 0.00 | 0.21 | 0.21 | 90 | 1005.7 |
| 20260507015357 | 60 | 271 | 4.0 | 10.0 | 0.01 | 0.21 | 0.21 | 90 | 1005.8 |
| 20260507014853 | 60 | 253 | 3.0 | 8.0 | 0.01 | 0.21 | 0.21 | 90 | 1006.0 |
| 20260507014352 | 60 | 182 | 3.0 | 10.0 | 0.01 | 0.21 | 0.21 | 90 | 1005.9 |
| 20260507013849 | 60 | 206 | 4.0 | 7.0 | 0.01 | 0.21 | 0.21 | 90 | 1005.9 |
| 20260507013325 | 60 | 172 | 5.0 | 9.0 | 0.01 | 0.21 | 0.21 | 90 | 1005.9 |
| 20260507012823 | 60 | 161 | 3.0 | 8.0 | 0.01 | 0.21 | 0.21 | 90 | 1005.9 |
| 20260507012339 | 60 | 190 | 4.0 | 8.0 | 0.01 | 0.21 | 0.21 | 90 | 1005.9 |
| 20260507011857 | 60 | 233 | 3.0 | 9.0 | 0.01 | 0.21 | 0.21 | 90 | 1006.0 |
| 20260507011332 | 60 | 209 | 4.0 | 10.0 | 0.01 | 0.21 | 0.21 | 90 | 1005.9 |
| 20260507010829 | 60 | 197 | 6.0 | 12.0 | 0.01 | 0.21 | 0.21 | 90 | 1006.1 |
| 20260507010322 | 60 | 177 | 6.0 | 10.0 | 0.01 | 0.21 | 0.21 | 90 | 1006.0 |
| 20260507005819 | 60 | 192 | 6.0 | 10.0 | 0.01 | 0.21 | 0.21 | 90 | 1006.0 |
| 20260507005317 | 60 | 176 | 3.0 | 10.0 | 0.00 | 0.20 | 0.20 | 90 | 1006.0 |
| 20260507004833 | 60 | 232 | 5.0 | 8.0 | 0.00 | 0.20 | 0.20 | 90 | 1005.8 |
| 20260507004330 | 60 | 195 | 4.0 | 9.0 | 0.00 | 0.20 | 0.20 | 90 | 1005.9 |
| 20260507003827 | 60 | 223 | 4.0 | 10.0 | 0.00 | 0.20 | 0.20 | 90 | 1005.9 |
| 20260507003324 | 60 | 165 | 4.0 | 11.0 | 0.01 | 0.20 | 0.20 | 90 | 1005.9 |
| 20260507002822 | 60 | 167 | 5.0 | 10.0 | 0.02 | 0.20 | 0.20 | 90 | 1005.8 |
| 20260507002319 | 60 | 195 | 5.0 | 10.0 | 0.03 | 0.20 | 0.20 | 90 | 1005.7 |
| 20260507001839 | 60 | 207 | 5.0 | 10.0 | 0.03 | 0.20 | 0.20 | 90 | 1005.7 |
| 20260507001358 | 60 | 197 | 6.0 | 10.0 | 0.03 | 0.20 | 0.20 | 90 | 1005.8 |
| 20260507000901 | 60 | 193 | 6.0 | 10.0 | 0.03 | 0.20 | 0.20 | 90 | 1005.7 |
| 20260507000335 | 60 | 178 | 6.0 | 10.0 | 0.04 | 0.20 | 0.20 | 90 | 1005.8 |
| 20260506235831 | 60 | 191 | 5.0 | 12.0 | 0.04 | 0.20 | 0.20 | 90 | 1005.8 |
| 20260506235417 | 60 | 177 | 5.0 | 12.0 | 0.04 | 0.20 | 0.20 | 90 | 1005.6 |
| 20260506234831 | 60 | 177 | 5.0 | 9.0 | 0.04 | 0.20 | 0.20 | 90 | 1005.7 |
| 20260506234348 | 60 | 209 | 5.0 | 9.0 | 0.04 | 0.20 | 0.20 | 90 | 1005.6 |
| 20260506233846 | 60 | 190 | 6.0 | 11.0 | 0.05 | 0.20 | 0.20 | 90 | 1005.8 |
| 20260506233321 | 60 | 157 | 7.0 | 11.0 | 0.04 | 0.19 | 0.19 | 90 | 1005.7 |
| 20260506232905 | 60 | 161 | 5.0 | 15.0 | 0.03 | 0.18 | 0.18 | 90 | 1005.7 |
| 20260506232318 | 60 | 191 | 8.0 | 15.0 | 0.02 | 0.17 | 0.17 | 90 | 1005.7 |
| 20260506231901 | 60 | 170 | 9.0 | 11.0 | 0.02 | 0.17 | 0.17 | 90 | 1005.8 |
| 20260506231419 | 60 | 129 | 8.0 | 10.0 | 0.03 | 0.17 | 0.17 | 90 | 1005.8 |
| 20260506230854 | 60 | 176 | 7.0 | 10.0 | 0.03 | 0.17 | 0.17 | 90 | 1006.0 |
| 20260506230327 | 60 | 185 | 6.0 | 11.0 | 0.02 | 0.16 | 0.16 | 90 | 1005.9 |
| 20260506225844 | 60 | 170 | 5.0 | 11.0 | 0.03 | 0.16 | 0.16 | 89 | 1005.9 |
| 20260506225408 | 60 | 180 | 6.0 | 11.0 | 0.03 | 0.16 | 0.16 | 90 | 1005.8 |
| 20260506224840 | 60 | 176 | 7.0 | 10.0 | 0.03 | 0.16 | 0.16 | 90 | 1006.0 |
| 20260506224316 | 61 | 168 | 7.0 | 11.0 | 0.03 | 0.16 | 0.16 | 89 | 1006.0 |
| 20260506223833 | 61 | 188 | 4.0 | 12.0 | 0.02 | 0.15 | 0.15 | 89 | 1006.0 |
| 20260506223350 | 61 | 200 | 7.0 | 12.0 | 0.02 | 0.15 | 0.15 | 89 | 1006.0 |
| 20260506222828 | 61 | 174 | 5.0 | 10.0 | 0.03 | 0.15 | 0.15 | 89 | 1006.1 |
| 20260506222326 | 61 | 146 | 5.0 | 10.0 | 0.03 | 0.15 | 0.15 | 89 | 1006.0 |
| 20260506221910 | 61 | 186 | 6.0 | 9.0 | 0.03 | 0.15 | 0.15 | 89 | 1006.3 |
| 20260506221325 | 61 | 187 | 5.0 | 12.0 | 0.03 | 0.14 | 0.14 | 89 | 1006.3 |
| 20260506220904 | 61 | 157 | 5.0 | 12.0 | 0.03 | 0.14 | 0.14 | 89 | 1006.3 |
| 20260506220318 | 61 | 132 | 6.0 | 10.0 | 0.03 | 0.14 | 0.14 | 89 | 1006.4 |
| 20260506215834 | 61 | 176 | 5.0 | 10.0 | 0.04 | 0.14 | 0.14 | 89 | 1006.3 |
| 20260506215330 | 61 | 190 | 6.0 | 14.0 | 0.03 | 0.13 | 0.13 | 88 | 1006.4 |
| 20260506214848 | 61 | 178 | 8.0 | 14.0 | 0.03 | 0.13 | 0.13 | 88 | 1006.4 |
| 20260506214344 | 61 | 182 | 8.0 | 13.0 | 0.04 | 0.13 | 0.13 | 88 | 1006.4 |
| 20260506213839 | 62 | 159 | 5.0 | 7.0 | 0.04 | 0.13 | 0.13 | 88 | 1006.5 |
| 20260506213358 | 62 | 195 | 5.0 | 8.0 | 0.05 | 0.13 | 0.13 | 88 | 1006.5 |
| 20260506212834 | 62 | 170 | 5.0 | 8.0 | 0.04 | 0.12 | 0.12 | 88 | 1006.6 |
| 20260506212332 | 62 | 171 | 6.0 | 10.0 | 0.04 | 0.12 | 0.12 | 88 | 1006.7 |
| 20260506211830 | 62 | 173 | 6.0 | 9.0 | 0.05 | 0.12 | 0.12 | 87 | 1006.8 |
| 20260506211348 | 62 | 181 | 6.0 | 10.0 | 0.05 | 0.11 | 0.11 | 87 | 1006.9 |
| 20260506210822 | 62 | 147 | 5.0 | 11.0 | 0.07 | 0.11 | 0.11 | 87 | 1006.9 |
| 20260506210318 | 62 | 159 | 6.0 | 11.0 | 0.07 | 0.11 | 0.11 | 87 | 1007.0 |
| 20260506205834 | 62 | 178 | 7.0 | 11.0 | 0.06 | 0.10 | 0.10 | 87 | 1007.0 |
| 20260506205351 | 62 | 181 | 5.0 | 9.0 | 0.06 | 0.10 | 0.10 | 86 | 1006.9 |
| 20260506204827 | 63 | 144 | 5.0 | 10.0 | 0.06 | 0.10 | 0.10 | 86 | 1007.0 |
| 20260506204344 | 63 | 189 | 8.0 | 14.0 | 0.06 | 0.09 | 0.09 | 86 | 1007.0 |
| 20260506203842 | 63 | 178 | 6.0 | 12.0 | 0.06 | 0.09 | 0.09 | 86 | 1006.9 |
| 20260506203338 | 63 | 174 | 7.0 | 12.0 | 0.06 | 0.08 | 0.08 | 85 | 1007.0 |